createdAt,value
2018-09-23T00:00:04.134Z,30.03
2018-09-23T00:02:32.445Z,28.10
2018-09-23T00:05:00.771Z,26.87
2018-09-23T00:07:29.126Z,29.43
2018-09-23T00:09:57.637Z,29.17
2018-09-23T00:12:26.038Z,28.90
2018-09-23T00:14:54.503Z,28.13
2018-09-23T00:17:22.790Z,31.27
2018-09-23T00:19:51.123Z,31.20
2018-09-23T00:23:48.856Z,35.70
2018-09-23T00:26:17.140Z,35.80
2018-09-23T00:28:45.435Z,34.77
2018-09-23T00:31:13.742Z,36.07
2018-09-23T00:33:42.019Z,32.73
2018-09-23T00:36:10.303Z,40.07
2018-09-23T00:38:38.597Z,37.93
2018-09-23T00:41:06.878Z,35.63
2018-09-23T00:43:35.191Z,38.70
2018-09-23T00:46:03.689Z,41.67
2018-09-23T00:48:31.982Z,43.23
2018-09-23T00:51:00.273Z,42.50
2018-09-23T00:53:28.573Z,44.33
2018-09-23T00:55:56.891Z,47.13
2018-09-23T00:58:25.226Z,47.60
2018-09-23T01:00:53.520Z,46.10
2018-09-23T01:03:21.912Z,43.20
2018-09-23T01:05:50.537Z,45.67
2018-09-23T01:08:19.211Z,41.83
2018-09-23T01:10:47.497Z,45.77
2018-09-23T01:13:16.234Z,46.40
2018-09-23T01:15:44.558Z,45.27
2018-09-23T01:18:12.838Z,47.07
2018-09-23T01:20:41.292Z,45.70
2018-09-23T01:23:09.597Z,43.43
2018-09-23T01:25:37.965Z,42.13
2018-09-23T01:28:06.299Z,43.97
2018-09-23T01:30:34.587Z,43.50
2018-09-23T01:33:02.932Z,37.83
2018-09-23T01:35:31.238Z,40.30
2018-09-23T01:37:59.758Z,39.70
2018-09-23T01:40:28.047Z,43.80
2018-09-23T01:42:56.350Z,39.10
2018-09-23T01:45:24.659Z,36.43
2018-09-23T01:47:52.946Z,41.93
2018-09-23T01:50:21.279Z,40.60
2018-09-23T01:52:49.695Z,38.47
2018-09-23T01:55:17.991Z,36.67
2018-09-23T01:57:46.280Z,40.33
2018-09-23T02:00:14.603Z,41.67
2018-09-23T02:02:42.887Z,39.40
2018-09-23T02:05:11.530Z,41.37
2018-09-23T02:07:40.023Z,41.10
2018-09-23T02:10:08.614Z,39.10
2018-09-23T02:12:36.956Z,38.80
2018-09-23T02:15:05.854Z,38.53
2018-09-23T02:17:34.146Z,42.73
2018-09-23T02:20:02.445Z,41.40
2018-09-23T02:22:30.747Z,40.10
2018-09-23T02:24:59.161Z,37.93
2018-09-23T02:27:27.788Z,36.53
2018-09-23T02:29:56.090Z,38.10
2018-09-23T02:32:24.420Z,39.23
2018-09-23T02:34:52.733Z,35.03
2018-09-23T02:37:21.059Z,38.30
2018-09-23T02:39:49.323Z,39.80
2018-09-23T02:42:17.625Z,39.43
2018-09-23T02:44:45.923Z,34.50
2018-09-23T02:47:14.206Z,36.23
2018-09-23T02:49:42.536Z,37.10
2018-09-23T02:52:10.836Z,37.67
2018-09-23T02:54:39.116Z,36.83
2018-09-23T02:57:07.407Z,34.97
2018-09-23T02:59:35.711Z,30.17
2018-09-23T03:02:04.043Z,34.37
2018-09-23T03:04:32.316Z,33.97
2018-09-23T03:07:00.718Z,32.77
2018-09-23T03:09:29.000Z,33.50
2018-09-23T03:11:57.483Z,31.93
2018-09-23T03:14:25.915Z,30.73
2018-09-23T03:16:54.647Z,25.70
2018-09-23T03:19:23.279Z,27.37
2018-09-23T03:21:51.580Z,27.97
2018-09-23T03:24:19.894Z,29.30
2018-09-23T03:26:48.205Z,29.63
2018-09-23T03:29:16.832Z,30.73
2018-09-23T03:31:45.277Z,30.40
2018-09-23T03:34:13.801Z,30.93
2018-09-23T03:36:42.089Z,34.30
2018-09-23T03:39:10.474Z,31.23
2018-09-23T03:41:38.759Z,34.87
2018-09-23T03:44:07.069Z,31.53
2018-09-23T03:46:35.714Z,27.93
2018-09-23T03:49:04.260Z,30.37
2018-09-23T03:51:32.760Z,28.63
2018-09-23T03:54:01.104Z,28.97
2018-09-23T03:56:29.383Z,28.23
2018-09-23T03:58:57.663Z,27.03
2018-09-23T04:01:25.967Z,29.80
2018-09-23T04:03:54.237Z,31.53
2018-09-23T04:06:22.538Z,29.27
2018-09-23T04:08:50.812Z,26.93
2018-09-23T04:11:19.261Z,26.67
2018-09-23T04:13:47.539Z,28.47
2018-09-23T04:16:15.863Z,26.83
2018-09-23T04:18:44.143Z,29.87
2018-09-23T04:21:12.449Z,27.93
2018-09-23T04:23:40.756Z,29.60
2018-09-23T04:26:09.066Z,28.70
2018-09-23T04:28:37.357Z,28.37
2018-09-23T04:31:05.710Z,31.63
2018-09-23T04:33:34.054Z,34.23
2018-09-23T04:36:02.356Z,31.37
2018-09-23T04:38:30.639Z,33.70
2018-09-23T04:40:58.922Z,31.43
2018-09-23T04:43:27.203Z,33.07
2018-09-23T04:45:55.506Z,36.23
2018-09-23T04:48:23.815Z,33.50
2018-09-23T04:50:52.107Z,37.87
2018-09-23T04:53:20.409Z,39.70
2018-09-23T04:55:48.702Z,38.70
2018-09-23T04:58:16.997Z,35.90
2018-09-23T05:00:45.369Z,37.33
2018-09-23T05:03:13.676Z,42.40
2018-09-23T05:05:42.295Z,36.73
2018-09-23T05:08:10.591Z,40.30
2018-09-23T05:10:38.914Z,38.50
2018-09-23T05:13:07.248Z,34.10
2018-09-23T05:15:35.874Z,35.93
2018-09-23T05:18:04.488Z,37.13
2018-09-23T05:20:32.767Z,40.53
2018-09-23T05:23:01.090Z,37.80
2018-09-23T05:25:29.403Z,38.70
2018-09-23T05:27:57.703Z,33.73
2018-09-23T05:30:26.158Z,37.20
2018-09-23T05:32:54.439Z,38.37
2018-09-23T05:35:22.770Z,36.83
2018-09-23T05:37:51.491Z,35.73
2018-09-23T05:40:19.804Z,37.87
2018-09-23T05:42:48.089Z,38.33
2018-09-23T05:45:16.402Z,39.03
2018-09-23T05:47:44.746Z,40.30
2018-09-23T05:50:13.095Z,42.10
2018-09-23T05:52:41.380Z,41.53
2018-09-23T05:55:09.694Z,37.07
2018-09-23T05:57:37.980Z,39.67
2018-09-23T06:00:06.630Z,36.93
2018-09-23T06:02:34.991Z,40.13
2018-09-23T06:05:03.355Z,41.90
2018-09-23T06:07:31.667Z,38.60
2018-09-23T06:10:00.024Z,39.97
2018-09-23T06:12:28.332Z,41.23
2018-09-23T06:14:56.641Z,37.17
2018-09-23T06:17:24.996Z,38.37
2018-09-23T06:19:53.647Z,37.50
2018-09-23T06:22:22.038Z,37.63
2018-09-23T06:24:50.346Z,36.47
2018-09-23T06:27:18.669Z,37.73
2018-09-23T06:29:47.023Z,37.00
2018-09-23T06:32:15.382Z,35.23
2018-09-23T06:34:43.682Z,39.60
2018-09-23T06:37:12.156Z,34.60
2018-09-23T06:39:40.473Z,36.63
2018-09-23T06:42:08.813Z,40.50
2018-09-23T06:44:37.161Z,39.03
2018-09-23T06:47:05.676Z,36.73
2018-09-23T06:49:34.004Z,38.63
2018-09-23T06:52:02.579Z,34.37
2018-09-23T06:54:30.876Z,34.93
2018-09-23T06:56:59.245Z,35.77
2018-09-23T06:59:27.769Z,34.00
2018-09-23T07:01:56.397Z,32.53
2018-09-23T07:04:24.857Z,31.63
2018-09-23T07:06:53.423Z,32.27
2018-09-23T07:09:21.774Z,28.80
2018-09-23T07:11:50.115Z,27.90
2018-09-23T07:14:18.536Z,27.30
2018-09-23T07:16:46.956Z,27.57
2018-09-23T07:19:16.219Z,28.77
2018-09-23T07:21:44.563Z,29.37
2018-09-23T07:24:13.372Z,25.70
2018-09-23T07:26:41.832Z,27.50
2018-09-23T07:29:10.418Z,25.90
2018-09-23T07:31:38.783Z,27.57
2018-09-23T07:34:07.148Z,29.50
2018-09-23T07:36:35.515Z,26.67
2018-09-23T07:39:05.072Z,25.07
2018-09-23T07:41:33.451Z,17.53
2018-09-23T07:44:01.793Z,22.67
2018-09-23T07:46:30.156Z,24.97
2018-09-23T07:48:58.488Z,26.53
2018-09-23T07:51:26.834Z,24.97
2018-09-23T07:53:55.210Z,28.23
2018-09-23T07:56:23.555Z,27.43
2018-09-23T07:58:52.078Z,25.80
2018-09-23T08:01:20.835Z,25.13
2018-09-23T08:03:49.163Z,26.03
2018-09-23T08:06:17.482Z,24.97
2018-09-23T08:08:45.855Z,21.80
2018-09-23T08:11:14.210Z,22.50
2018-09-23T08:13:43.920Z,23.53
2018-09-23T08:16:12.260Z,21.13
2018-09-23T08:18:40.596Z,18.23
2018-09-23T08:21:16.143Z,23.07
2018-09-23T08:23:44.673Z,23.53
2018-09-23T08:26:14.025Z,22.47
2018-09-23T08:28:42.517Z,22.00
2018-09-23T08:31:12.082Z,21.37
2018-09-23T08:33:40.399Z,22.20
2018-09-23T08:36:08.922Z,19.70
2018-09-23T08:38:37.676Z,19.87
2018-09-23T08:41:06.113Z,20.53
2018-09-23T08:43:34.535Z,22.37
2018-09-23T08:46:02.909Z,20.40
2018-09-23T08:48:31.372Z,21.93
2018-09-23T08:50:59.726Z,18.23
2018-09-23T08:53:28.132Z,18.90
2018-09-23T08:55:56.523Z,21.70
2018-09-23T08:58:24.931Z,21.77
2018-09-23T09:00:53.813Z,18.40
2018-09-23T09:03:22.290Z,20.93
2018-09-23T09:05:50.776Z,18.60
2018-09-23T09:08:19.137Z,20.93
2018-09-23T09:10:47.537Z,20.90
2018-09-23T09:13:16.236Z,23.27
2018-09-23T09:15:44.837Z,23.60
2018-09-23T09:18:13.247Z,22.73
2018-09-23T09:20:42.263Z,23.70
2018-09-23T09:23:10.825Z,25.27
2018-09-23T09:27:09.037Z,24.93
2018-09-23T09:29:38.066Z,22.50
2018-09-23T09:32:07.174Z,22.17
2018-09-23T09:34:36.162Z,23.80
2018-09-23T09:37:04.866Z,22.47
2018-09-23T09:39:33.250Z,24.67
2018-09-23T09:42:02.889Z,29.93
2018-09-23T09:44:31.584Z,28.17
2018-09-23T09:46:59.961Z,30.40
2018-09-23T09:49:28.544Z,35.77
2018-09-23T09:51:58.301Z,40.43
2018-09-23T09:54:26.690Z,42.73
2018-09-23T09:56:55.262Z,46.93
2018-09-23T09:59:23.697Z,43.73
2018-09-23T10:01:52.745Z,48.97
2018-09-23T10:04:21.134Z,46.07
2018-09-23T10:06:49.569Z,57.90
2018-09-23T10:09:17.968Z,52.77
2018-09-23T10:11:46.868Z,58.33
2018-09-23T10:14:15.210Z,51.53
2018-09-23T10:16:43.633Z,63.03
2018-09-23T10:19:12.060Z,64.17
2018-09-23T10:21:40.719Z,77.50
2018-09-23T10:24:09.094Z,80.60
2018-09-23T10:26:37.406Z,63.60
2018-09-23T10:29:06.358Z,59.13
2018-09-23T10:31:34.867Z,60.40
2018-09-23T10:34:03.844Z,60.97
2018-09-23T10:36:32.305Z,52.70
2018-09-23T10:39:00.727Z,47.50
2018-09-23T10:41:29.162Z,40.93
2018-09-23T10:43:58.667Z,37.37
2018-09-23T10:46:27.155Z,36.73
2018-09-23T10:48:55.562Z,29.53
2018-09-23T10:51:23.970Z,26.20
2018-09-23T10:53:52.469Z,24.23
2018-09-23T10:56:21.197Z,21.40
2018-09-23T10:58:49.758Z,23.23
2018-09-23T11:01:18.149Z,18.67
2018-09-23T11:03:46.575Z,15.30
2018-09-23T11:06:15.404Z,12.53
2018-09-23T11:08:46.733Z,14.10
2018-09-23T11:11:16.291Z,14.63
2018-09-23T11:13:44.690Z,13.70
2018-09-23T11:16:13.004Z,14.83
2018-09-23T11:18:41.366Z,15.87
2018-09-23T11:21:10.017Z,9.97
2018-09-23T11:23:38.350Z,10.37
2018-09-23T11:26:06.748Z,11.00
2018-09-23T11:28:35.187Z,9.77
2018-09-23T11:31:03.527Z,10.93
2018-09-23T11:33:31.909Z,8.60
2018-09-23T11:36:00.438Z,9.33
2018-09-23T11:38:28.789Z,9.43
2018-09-23T11:40:58.221Z,10.53
2018-09-23T11:43:26.613Z,6.00
2018-09-23T11:45:54.941Z,9.10
2018-09-23T11:48:23.292Z,8.60
2018-09-23T11:50:51.603Z,8.97
2018-09-23T11:53:19.969Z,8.07
2018-09-23T11:55:48.329Z,6.23
2018-09-23T11:58:16.639Z,6.43
2018-09-23T12:00:45.227Z,4.90
2018-09-23T12:03:13.590Z,5.30
2018-09-23T12:05:43.592Z,4.97
2018-09-23T12:08:12.097Z,6.60
2018-09-23T12:10:40.413Z,6.00
2018-09-23T12:13:11.383Z,6.43
2018-09-23T12:15:39.831Z,5.07
2018-09-23T12:18:08.360Z,4.57
2018-09-23T12:20:36.725Z,7.17
2018-09-23T12:23:05.116Z,6.87
2018-09-23T12:25:33.696Z,5.73
2018-09-23T12:28:02.227Z,4.43
2018-09-23T12:30:30.603Z,4.30
2018-09-23T12:32:59.047Z,10.27
2018-09-23T12:35:27.868Z,5.40
2018-09-23T12:37:56.609Z,7.33
2018-09-23T12:40:25.256Z,6.07
2018-09-23T12:42:53.683Z,4.50
2018-09-23T12:45:22.091Z,4.20
2018-09-23T12:47:51.171Z,3.63
2018-09-23T12:50:19.635Z,7.37
2018-09-23T12:52:48.422Z,5.87
2018-09-23T12:55:16.884Z,7.57
2018-09-23T12:57:46.582Z,6.77
2018-09-23T13:00:15.132Z,5.07
2018-09-23T13:02:44.115Z,8.23
2018-09-23T13:05:12.880Z,7.17
2018-09-23T13:07:41.588Z,5.10
2018-09-23T13:10:09.987Z,11.60
2018-09-23T13:12:38.412Z,4.17
2018-09-23T13:15:06.967Z,9.10
2018-09-23T13:17:35.392Z,6.40
2018-09-23T13:20:04.041Z,4.37
2018-09-23T13:22:32.581Z,5.10
2018-09-23T13:25:00.902Z,3.13
2018-09-23T13:27:29.321Z,5.70
2018-09-23T13:29:57.691Z,5.97
2018-09-23T13:32:26.020Z,3.80
2018-09-23T13:34:54.323Z,5.30
2018-09-23T13:37:22.645Z,2.43
2018-09-23T13:39:51.109Z,3.87
2018-09-23T13:42:19.484Z,5.77
2018-09-23T13:44:47.786Z,2.53
2018-09-23T13:47:16.137Z,3.30
2018-09-23T13:49:44.482Z,6.60
2018-09-23T13:52:12.798Z,5.80
2018-09-23T13:54:41.107Z,4.10
2018-09-23T13:57:09.853Z,2.03
2018-09-23T13:59:38.519Z,3.87
2018-09-23T14:02:06.880Z,4.03
2018-09-23T14:04:35.608Z,3.50
2018-09-23T14:07:04.084Z,4.73
2018-09-23T14:09:32.383Z,5.90
2018-09-23T14:12:00.753Z,2.67
2018-09-23T14:21:13.572Z,2.53
2018-09-23T14:23:42.123Z,2.17
2018-09-23T14:26:10.413Z,1.30
2018-09-23T14:28:38.708Z,4.53
2018-09-23T14:31:07.237Z,6.47
2018-09-23T14:33:35.598Z,10.03
2018-09-23T14:36:04.041Z,7.93
2018-09-23T14:38:33.232Z,3.00
2018-09-23T14:41:01.640Z,3.97
2018-09-23T14:43:30.230Z,5.03
2018-09-23T14:45:58.686Z,11.33
2018-09-23T14:48:27.139Z,18.73
2018-09-23T14:50:55.601Z,3.50
2018-09-23T14:53:24.008Z,4.07
2018-09-23T14:55:54.363Z,2.57
2018-09-23T14:58:22.767Z,2.47
2018-09-23T15:00:51.204Z,2.23
2018-09-23T15:03:20.020Z,2.83
2018-09-23T15:05:48.605Z,3.73
2018-09-23T15:08:16.926Z,2.40
2018-09-23T15:10:45.224Z,4.40
2018-09-23T15:13:13.575Z,3.97
2018-09-23T15:15:41.909Z,4.97
2018-09-23T15:18:10.237Z,4.00
2018-09-23T15:20:38.575Z,5.27
2018-09-23T15:23:06.920Z,20.87
2018-09-23T15:25:35.316Z,3.67
2018-09-23T15:28:03.661Z,4.23
2018-09-23T15:30:31.957Z,3.77
2018-09-23T15:33:00.448Z,4.40
2018-09-23T15:35:28.862Z,4.63
2018-09-23T15:37:57.284Z,5.70
2018-09-23T15:40:25.697Z,4.57
2018-09-23T15:42:54.060Z,4.87
2018-09-23T15:45:22.447Z,4.13
2018-09-23T15:47:51.222Z,3.17
2018-09-23T15:50:19.656Z,74.50
2018-09-23T15:52:48.354Z,14.47
2018-09-23T15:55:16.804Z,8.67
2018-09-23T15:57:45.384Z,12.37
2018-09-23T16:00:15.722Z,25.32
2018-09-23T16:02:44.266Z,7.67
2018-09-23T16:05:12.984Z,14.00
2018-09-23T16:07:41.345Z,8.20
2018-09-23T16:10:09.908Z,8.70
2018-09-23T16:12:38.273Z,6.73
2018-09-23T16:21:51.108Z,4.97
2018-09-23T16:24:19.948Z,5.00
2018-09-23T16:26:48.299Z,6.87
2018-09-23T16:29:17.679Z,2.93
2018-09-23T16:31:46.003Z,6.07
2018-09-23T16:34:14.576Z,6.17
2018-09-23T16:36:42.913Z,4.37
2018-09-23T16:39:11.958Z,6.80
2018-09-23T16:41:40.329Z,8.23
2018-09-23T16:44:08.926Z,3.83
2018-09-23T16:46:37.329Z,7.97
2018-09-23T16:49:06.167Z,5.13
2018-09-23T16:51:34.483Z,7.37
2018-09-23T16:54:02.957Z,4.00
2018-09-23T16:56:31.254Z,3.83
2018-09-23T16:58:59.612Z,6.97
2018-09-23T17:01:28.168Z,5.13
2018-09-23T17:03:56.486Z,6.97
2018-09-23T17:06:24.788Z,4.90
2018-09-23T17:08:53.095Z,4.50
2018-09-23T17:11:23.449Z,3.63
2018-09-23T17:13:51.803Z,4.57
2018-09-23T17:16:20.123Z,6.17
2018-09-23T17:18:48.408Z,5.83
2018-09-23T17:21:17.028Z,6.23
2018-09-23T17:23:45.369Z,12.17
2018-09-23T17:26:13.738Z,7.30
2018-09-23T17:28:42.123Z,7.97
2018-09-23T17:31:10.601Z,4.37
2018-09-23T17:33:38.988Z,5.63
2018-09-23T17:36:07.306Z,6.63
2018-09-23T17:38:35.635Z,3.97
2018-09-23T17:41:03.933Z,50.43
2018-09-23T17:43:32.295Z,12.00
2018-09-23T17:46:00.603Z,8.60
2018-09-23T17:48:29.013Z,25.60
2018-09-23T17:50:57.399Z,6.10
2018-09-23T17:53:25.847Z,83.77
2018-09-23T17:55:54.385Z,82.40
2018-09-23T17:58:22.844Z,25.17
2018-09-23T18:00:51.163Z,7.47
2018-09-23T18:03:19.466Z,89.37
2018-09-23T18:05:47.772Z,7.70
2018-09-23T18:08:16.062Z,14.43
2018-09-23T18:10:44.438Z,10.77
2018-09-23T18:16:05.276Z,15.30
2018-09-23T18:18:34.324Z,8.23
2018-09-23T18:21:02.656Z,7.17
2018-09-23T18:23:31.158Z,7.90
2018-09-23T18:25:59.799Z,10.83
2018-09-23T18:28:28.739Z,12.70
2018-09-23T18:30:57.068Z,5.00
2018-09-23T18:33:25.392Z,8.27
2018-09-23T18:35:54.580Z,10.47
2018-09-23T18:38:23.021Z,8.87
2018-09-23T18:40:51.575Z,8.57
2018-09-23T18:43:19.992Z,4.87
2018-09-23T18:45:48.405Z,9.97
2018-09-23T18:48:16.813Z,10.20
2018-09-23T18:50:45.182Z,7.83
2018-09-23T18:53:18.988Z,10.03
2018-09-23T18:55:48.573Z,9.87
2018-09-23T18:58:17.003Z,8.93
2018-09-23T19:00:45.411Z,5.57
2018-09-23T19:03:14.047Z,5.50
2018-09-23T19:05:42.829Z,5.40
2018-09-23T19:08:11.325Z,6.40
2018-09-23T19:10:40.533Z,8.37
2018-09-23T19:13:14.165Z,9.87
2018-09-23T19:15:42.568Z,7.57
2018-09-23T19:18:11.753Z,9.40
2018-09-23T19:20:40.284Z,6.37
2018-09-23T19:23:10.770Z,7.57
2018-09-23T19:25:39.554Z,6.30
2018-09-23T19:28:07.915Z,8.07
2018-09-23T19:30:45.856Z,6.27
2018-09-23T19:33:14.241Z,10.03
2018-09-23T19:35:42.655Z,8.90
2018-09-23T19:38:11.097Z,11.50
2018-09-23T19:40:39.575Z,8.53
2018-09-23T19:43:08.125Z,9.90
2018-09-23T19:45:36.819Z,7.90
2018-09-23T19:48:05.375Z,6.93
2018-09-23T19:50:33.913Z,9.57
2018-09-23T19:53:02.354Z,9.80
2018-09-23T19:55:30.780Z,6.00
2018-09-23T19:57:59.130Z,7.33
2018-09-23T20:00:27.456Z,5.77
2018-09-23T20:02:55.791Z,5.87
2018-09-23T20:05:24.104Z,10.80
2018-09-23T20:07:52.448Z,6.17
2018-09-23T20:10:20.825Z,11.93
2018-09-23T20:12:49.974Z,7.67
2018-09-23T20:15:18.825Z,8.27
2018-09-23T20:17:47.807Z,5.17
2018-09-23T20:20:16.481Z,5.40
2018-09-23T20:22:45.925Z,8.63
2018-09-23T20:25:14.391Z,7.37
2018-09-23T20:27:43.672Z,7.23
2018-09-23T20:30:13.425Z,10.23
2018-09-23T20:32:42.056Z,8.37
2018-09-23T20:35:12.217Z,7.37
2018-09-23T20:37:42.227Z,8.77
2018-09-23T20:40:10.923Z,8.50
2018-09-23T20:42:40.966Z,10.57
2018-09-23T20:45:11.621Z,8.30
2018-09-23T20:47:41.289Z,8.30
2018-09-23T20:50:13.609Z,8.80
2018-09-23T20:52:42.239Z,12.97
2018-09-23T20:55:13.227Z,7.87
2018-09-23T20:57:44.220Z,8.83
2018-09-23T21:00:13.349Z,9.10
2018-09-23T21:02:46.549Z,9.27
2018-09-23T21:05:16.858Z,7.23
2018-09-23T21:07:47.122Z,11.40
2018-09-23T21:10:15.534Z,7.47
2018-09-23T21:12:44.333Z,11.67
2018-09-23T21:15:13.356Z,7.23
2018-09-23T21:17:41.809Z,9.17
2018-09-23T21:20:10.128Z,8.63
2018-09-23T21:22:38.444Z,12.63
2018-09-23T21:25:06.822Z,10.10
2018-09-23T21:27:35.383Z,8.50
2018-09-23T21:30:03.998Z,10.07
2018-09-23T21:32:32.324Z,11.87
2018-09-23T21:35:00.596Z,10.23
2018-09-23T21:37:28.898Z,8.90
2018-09-23T21:39:57.203Z,8.47
2018-09-23T21:42:25.839Z,11.60
2018-09-23T21:44:54.207Z,11.90
2018-09-23T21:47:22.503Z,10.43
2018-09-23T21:49:50.755Z,11.23
2018-09-23T21:52:19.051Z,7.03
2018-09-23T21:54:47.394Z,6.27
2018-09-23T21:57:15.672Z,8.47
2018-09-23T21:59:43.984Z,7.30
2018-09-23T22:02:12.280Z,5.80
2018-09-23T22:04:40.571Z,8.07
2018-09-23T22:07:09.043Z,12.10
2018-09-23T22:09:37.342Z,7.23
2018-09-23T22:12:06.303Z,7.27
2018-09-23T22:14:34.846Z,6.13
2018-09-23T22:17:03.158Z,10.17
2018-09-23T22:19:31.801Z,6.67
2018-09-23T22:22:00.165Z,8.23
2018-09-23T22:24:28.419Z,6.23
2018-09-23T22:26:56.698Z,6.80
2018-09-23T22:30:54.456Z,8.07
2018-09-23T22:33:22.997Z,7.20
2018-09-23T22:35:51.351Z,4.17
2018-09-23T22:38:19.651Z,6.00
2018-09-23T22:40:47.991Z,5.07
2018-09-23T22:43:16.288Z,10.33
2018-09-23T22:45:44.613Z,9.13
2018-09-23T22:48:12.918Z,10.87
2018-09-23T22:50:41.584Z,9.40
2018-09-23T22:53:09.957Z,8.47
2018-09-23T22:55:39.453Z,10.20
2018-09-23T22:58:07.890Z,10.43
2018-09-23T23:00:36.231Z,8.23
2018-09-23T23:03:04.550Z,8.17
2018-09-23T23:05:32.954Z,6.97
2018-09-23T23:08:01.239Z,4.37
2018-09-23T23:10:29.883Z,8.03
2018-09-23T23:12:58.183Z,4.73
2018-09-23T23:15:26.509Z,5.57
2018-09-23T23:17:54.809Z,6.17
2018-09-23T23:20:23.423Z,5.80
2018-09-23T23:22:51.731Z,7.17
2018-09-23T23:25:20.007Z,6.53
2018-09-23T23:27:48.314Z,8.00
2018-09-23T23:30:16.653Z,10.13
2018-09-23T23:32:44.926Z,6.70
2018-09-23T23:35:13.259Z,8.70
2018-09-23T23:37:41.535Z,10.13
2018-09-23T23:40:09.859Z,8.47
2018-09-23T23:42:38.175Z,7.10
2018-09-23T23:45:06.513Z,8.03
2018-09-23T23:47:34.776Z,8.07
2018-09-23T23:50:03.381Z,8.37
2018-09-23T23:52:31.693Z,10.97
2018-09-23T23:55:00.021Z,4.60
2018-09-23T23:57:28.303Z,6.03
2018-09-23T23:59:56.596Z,9.17
